sensor_id;sensor_type;location;lat;lon;timestamp;pressure;altitude;pressure_sealevel;temperature;humidity
18813;BME280;9534;51.140;6.296;2023-02-21T00:02:14;101183.63;;;7.55;100.00
18813;BME280;9534;51.140;6.296;2023-02-21T00:06:35;101186.16;;;7.56;100.00
18813;BME280;9534;51.140;6.296;2023-02-21T00:10:57;101179.22;;;7.54;100.00
18813;BME280;9534;51.140;6.296;2023-02-21T00:15:17;101184.00;;;7.52;100.00
18813;BME280;9534;51.140;6.296;2023-02-21T00:19:38;101178.19;;;7.55;100.00
18813;BME280;9534;51.140;6.296;2023-02-21T00:23:59;101183.63;;;7.55;100.00
18813;BME280;9534;51.140;6.296;2023-02-21T00:28:21;101176.50;;;7.54;100.00
18813;BME280;9534;51.140;6.296;2023-02-21T00:32:42;101176.50;;;7.54;100.00
18813;BME280;9534;51.140;6.296;2023-02-21T00:37:03;101183.63;;;7.55;100.00
18813;BME280;9534;51.140;6.296;2023-02-21T00:41:24;101191.25;;;7.59;100.00
18813;BME280;9534;51.140;6.296;2023-02-21T00:45:46;101183.63;;;7.55;100.00
18813;BME280;9534;51.140;6.296;2023-02-21T00:50:07;101186.00;;;7.58;100.00
18813;BME280;9534;51.140;6.296;2023-02-21T00:54:27;101175.47;;;7.55;100.00
18813;BME280;9534;51.140;6.296;2023-02-21T00:58:51;101171.03;;;7.54;100.00
18813;BME280;9534;51.140;6.296;2023-02-21T01:03:13;101164.72;;;7.53;100.00
18813;BME280;9534;51.140;6.296;2023-02-21T01:07:33;101161.19;;;7.53;100.00
18813;BME280;9534;51.140;6.296;2023-02-21T01:11:54;101158.94;;;7.56;100.00
18813;BME280;9534;51.140;6.296;2023-02-21T01:16:15;101160.16;;;7.54;100.00
18813;BME280;9534;51.140;6.296;2023-02-21T01:20:37;101155.53;;;7.54;100.00
18813;BME280;9534;51.140;6.296;2023-02-21T01:24:57;101158.44;;;7.53;100.00
18813;BME280;9534;51.140;6.296;2023-02-21T01:29:18;101157.91;;;7.57;100.00
18813;BME280;9534;51.140;6.296;2023-02-21T01:33:39;101149.25;;;7.54;100.00
18813;BME280;9534;51.140;6.296;2023-02-21T01:38:02;101157.22;;;7.55;100.00
18813;BME280;9534;51.140;6.296;2023-02-21T01:42:22;101158.09;;;7.56;100.00
18813;BME280;9534;51.140;6.296;2023-02-21T01:46:43;101162.69;;;7.55;100.00
18813;BME280;9534;51.140;6.296;2023-02-21T01:51:07;101145.31;;;7.56;100.00
18813;BME280;9534;51.140;6.296;2023-02-21T01:55:32;101147.19;;;7.56;100.00
18813;BME280;9534;51.140;6.296;2023-02-21T01:59:55;101142.78;;;7.55;100.00
18813;BME280;9534;51.140;6.296;2023-02-21T02:04:17;101133.59;;;7.56;100.00
18813;BME280;9534;51.140;6.296;2023-02-21T02:08:37;101140.06;;;7.55;100.00
18813;BME280;9534;51.140;6.296;2023-02-21T02:13:28;101141.75;;;7.56;100.00
18813;BME280;9534;51.140;6.296;2023-02-21T02:17:42;101134.78;;;7.53;100.00
18813;BME280;9534;51.140;6.296;2023-02-21T02:22:20;101125.41;;;7.56;100.00
18813;BME280;9534;51.140;6.296;2023-02-21T02:35:30;101125.09;;;7.51;100.00
18813;BME280;9534;51.140;6.296;2023-02-21T02:39:39;101123.41;;;7.50;100.00
18813;BME280;9534;51.140;6.296;2023-02-21T02:43:49;101122.38;;;7.51;100.00
18813;BME280;9534;51.140;6.296;2023-02-21T02:47:56;101119.66;;;7.51;100.00
18813;BME280;9534;51.140;6.296;2023-02-21T02:52:07;101122.38;;;7.51;100.00
18813;BME280;9534;51.140;6.296;2023-02-21T02:56:15;101113.53;;;7.49;100.00
18813;BME280;9534;51.140;6.296;2023-02-21T03:00:21;101115.41;;;7.48;100.00
18813;BME280;9534;51.140;6.296;2023-02-21T03:04:42;101122.06;;;7.46;100.00
18813;BME280;9534;51.140;6.296;2023-02-21T03:08:54;101106.75;;;7.45;100.00
18813;BME280;9534;51.140;6.296;2023-02-21T03:13:04;101105.06;;;7.44;100.00
18813;BME280;9534;51.140;6.296;2023-02-21T03:17:15;101102.50;;;7.42;100.00
18813;BME280;9534;51.140;6.296;2023-02-21T03:21:23;101098.06;;;7.41;100.00
18813;BME280;9534;51.140;6.296;2023-02-21T03:25:31;101092.47;;;7.43;100.00
18813;BME280;9534;51.140;6.296;2023-02-21T03:29:38;101095.56;;;7.40;100.00
18813;BME280;9534;51.140;6.296;2023-02-21T03:33:42;101094.53;;;7.41;100.00
18813;BME280;9534;51.140;6.296;2023-02-21T03:37:48;101095.56;;;7.40;100.00
18813;BME280;9534;51.140;6.296;2023-02-21T03:41:57;101088.41;;;7.39;100.00
18813;BME280;9534;51.140;6.296;2023-02-21T03:46:00;101087.38;;;7.40;100.00
18813;BME280;9534;51.140;6.296;2023-02-21T03:50:05;101094.88;;;7.38;100.00
18813;BME280;9534;51.140;6.296;2023-02-21T03:54:12;101089.78;;;7.35;100.00
18813;BME280;9534;51.140;6.296;2023-02-21T03:58:21;101094.00;;;7.37;100.00
18813;BME280;9534;51.140;6.296;2023-02-21T04:02:24;101099.66;;;7.36;100.00
18813;BME280;9534;51.140;6.296;2023-02-21T04:06:29;101103.03;;;7.38;100.00
18813;BME280;9534;51.140;6.296;2023-02-21T04:10:33;101098.97;;;7.34;100.00
18813;BME280;9534;51.140;6.296;2023-02-21T04:14:49;101095.59;;;7.32;100.00
18813;BME280;9534;51.140;6.296;2023-02-21T04:18:53;101086.75;;;7.30;100.00
18813;BME280;9534;51.140;6.296;2023-02-21T04:22:58;101087.97;;;7.28;100.00
18813;BME280;9534;51.140;6.296;2023-02-21T04:27:05;101080.16;;;7.25;100.00
18813;BME280;9534;51.140;6.296;2023-02-21T04:31:15;101088.50;;;7.23;100.00
18813;BME280;9534;51.140;6.296;2023-02-21T04:35:19;101086.47;;;7.17;100.00
18813;BME280;9534;51.140;6.296;2023-02-21T04:39:22;101092.94;;;7.16;100.00
18813;BME280;9534;51.140;6.296;2023-02-21T04:43:26;101092.63;;;7.11;100.00
18813;BME280;9534;51.140;6.296;2023-02-21T04:47:30;101084.50;;;7.03;100.00
18813;BME280;9534;51.140;6.296;2023-02-21T04:51:34;101086.91;;;6.98;100.00
18813;BME280;9534;51.140;6.296;2023-02-21T04:55:37;101074.31;;;6.97;100.00
18813;BME280;9534;51.140;6.296;2023-02-21T04:59:40;101078.56;;;7.00;100.00
18813;BME280;9534;51.140;6.296;2023-02-21T05:03:45;101084.00;;;7.00;100.00
18813;BME280;9534;51.140;6.296;2023-02-21T05:07:48;101086.06;;;6.98;100.00
18813;BME280;9534;51.140;6.296;2023-02-21T05:11:51;101095.41;;;6.95;100.00
18813;BME280;9534;51.140;6.296;2023-02-21T05:15:54;101092.69;;;6.95;100.00
18813;BME280;9534;51.140;6.296;2023-02-21T05:19:58;101098.47;;;6.92;100.00
18813;BME280;9534;51.140;6.296;2023-02-21T05:24:02;101091.53;;;6.90;100.00
18813;BME280;9534;51.140;6.296;2023-02-21T05:28:05;101097.31;;;6.95;100.00
18813;BME280;9534;51.140;6.296;2023-02-21T05:32:08;101095.41;;;6.95;100.00
18813;BME280;9534;51.140;6.296;2023-02-21T05:36:13;101094.75;;;6.93;100.00
18813;BME280;9534;51.140;6.296;2023-02-21T05:40:16;101088.47;;;6.93;100.00
18813;BME280;9534;51.140;6.296;2023-02-21T05:44:20;101085.91;;;6.91;100.00
18813;BME280;9534;51.140;6.296;2023-02-21T05:48:23;101095.09;;;6.90;100.00
18813;BME280;9534;51.140;6.296;2023-02-21T05:52:28;101107.38;;;6.86;100.00
18813;BME280;9534;51.140;6.296;2023-02-21T05:56:36;101101.25;;;6.84;100.00
18813;BME280;9534;51.140;6.296;2023-02-21T06:00:39;101107.72;;;6.83;100.00
18813;BME280;9534;51.140;6.296;2023-02-21T06:04:43;101105.34;;;6.80;100.00
18813;BME280;9534;51.140;6.296;2023-02-21T06:08:48;101102.44;;;6.82;100.00
18813;BME280;9534;51.140;6.296;2023-02-21T06:12:51;101099.91;;;6.80;100.00
18813;BME280;9534;51.140;6.296;2023-02-21T06:16:55;101107.06;;;6.81;100.00
18813;BME280;9534;51.140;6.296;2023-02-21T06:20:58;101107.75;;;6.75;100.00
18813;BME280;9534;51.140;6.296;2023-02-21T06:25:03;101105.38;;;6.72;100.00
18813;BME280;9534;51.140;6.296;2023-02-21T06:29:06;101108.78;;;6.74;100.00
18813;BME280;9534;51.140;6.296;2023-02-21T06:33:10;101097.69;;;6.76;100.00
18813;BME280;9534;51.140;6.296;2023-02-21T06:37:13;101100.59;;;6.74;100.00
18813;BME280;9534;51.140;6.296;2023-02-21T06:41:19;101107.91;;;6.74;100.00
18813;BME280;9534;51.140;6.296;2023-02-21T06:45:25;101103.00;;;6.69;100.00
18813;BME280;9534;51.140;6.296;2023-02-21T06:49:28;101097.56;;;6.69;100.00
18813;BME280;9534;51.140;6.296;2023-02-21T06:53:31;101094.84;;;6.69;100.00
18813;BME280;9534;51.140;6.296;2023-02-21T06:57:36;101103.00;;;6.69;100.00
18813;BME280;9534;51.140;6.296;2023-02-21T07:01:39;101099.25;;;6.70;100.00
18813;BME280;9534;51.140;6.296;2023-02-21T07:05:42;101095.31;;;6.73;100.00
18813;BME280;9534;51.140;6.296;2023-02-21T07:09:46;101095.16;;;6.74;100.00
18813;BME280;9534;51.140;6.296;2023-02-21T07:13:53;101091.78;;;6.72;100.00
18813;BME280;9534;51.140;6.296;2023-02-21T07:17:57;101087.69;;;6.76;100.00
18813;BME280;9534;51.140;6.296;2023-02-21T07:22:00;101090.22;;;6.78;100.00
18813;BME280;9534;51.140;6.296;2023-02-21T07:26:04;101088.50;;;6.77;100.00
18813;BME280;9534;51.140;6.296;2023-02-21T07:30:10;101092.78;;;6.79;100.00
18813;BME280;9534;51.140;6.296;2023-02-21T07:34:14;101095.16;;;6.74;100.00
18813;BME280;9534;51.140;6.296;2023-02-21T07:38:21;101102.66;;;6.72;100.00
18813;BME280;9534;51.140;6.296;2023-02-21T07:42:25;101088.50;;;6.77;100.00
18813;BME280;9534;51.140;6.296;2023-02-21T07:46:29;101099.91;;;6.80;100.00
18813;BME280;9534;51.140;6.296;2023-02-21T07:50:33;101106.53;;;6.78;100.00
18813;BME280;9534;51.140;6.296;2023-02-21T07:54:36;101103.44;;;6.89;100.00
18813;BME280;9534;51.140;6.296;2023-02-21T07:58:39;101106.97;;;6.97;100.00
18813;BME280;9534;51.140;6.296;2023-02-21T08:02:47;101110.72;;;6.96;100.00
18813;BME280;9534;51.140;6.296;2023-02-21T08:06:50;101115.81;;;6.99;100.00
18813;BME280;9534;51.140;6.296;2023-02-21T08:10:53;101109.19;;;7.02;100.00
18813;BME280;9534;51.140;6.296;2023-02-21T08:14:57;101105.94;;;6.98;100.00
18813;BME280;9534;51.140;6.296;2023-02-21T08:19:01;101105.59;;;7.01;100.00
18813;BME280;9534;51.140;6.296;2023-02-21T08:23:06;101103.22;;;6.98;100.00
18813;BME280;9534;51.140;6.296;2023-02-21T08:27:09;101101.53;;;6.97;100.00
18813;BME280;9534;51.140;6.296;2023-02-21T08:31:12;101100.00;;;7.03;100.00
18813;BME280;9534;51.140;6.296;2023-02-21T08:35:18;101110.38;;;6.99;100.00
18813;BME280;9534;51.140;6.296;2023-02-21T08:39:22;101105.78;;;7.00;100.00
18813;BME280;9534;51.140;6.296;2023-02-21T08:43:27;101106.59;;;7.08;100.00
18813;BME280;9534;51.140;6.296;2023-02-21T08:47:33;101100.28;;;7.16;100.00
18813;BME280;9534;51.140;6.296;2023-02-21T08:51:38;101102.44;;;7.20;100.00
18813;BME280;9534;51.140;6.296;2023-02-21T08:55:42;101095.31;;;7.19;100.00
18813;BME280;9534;51.140;6.296;2023-02-21T08:59:45;101091.25;;;7.15;100.00
18813;BME280;9534;51.140;6.296;2023-02-21T09:03:49;101088.53;;;7.15;100.00
18813;BME280;9534;51.140;6.296;2023-02-21T09:07:55;101099.22;;;7.25;100.00
18813;BME280;9534;51.140;6.296;2023-02-21T09:11:59;101087.47;;;7.24;100.00
18813;BME280;9534;51.140;6.296;2023-02-21T09:16:04;101091.88;;;7.25;100.00
18813;BME280;9534;51.140;6.296;2023-02-21T09:20:10;101098.00;;;7.27;100.00
18813;BME280;9534;51.140;6.296;2023-02-21T09:24:15;101081.31;;;7.30;100.00
18813;BME280;9534;51.140;6.296;2023-02-21T09:28:18;101083.72;;;7.25;100.00
18813;BME280;9534;51.140;6.296;2023-02-21T09:32:22;101081.66;;;7.27;100.00
18813;BME280;9534;51.140;6.296;2023-02-21T09:36:25;101067.28;;;7.41;100.00
18813;BME280;9534;51.140;6.296;2023-02-21T09:40:36;101074.56;;;7.48;100.00
18813;BME280;9534;51.140;6.296;2023-02-21T09:44:42;101074.38;;;7.50;100.00
18813;BME280;9534;51.140;6.296;2023-02-21T09:48:47;101063.66;;;7.48;100.00
18813;BME280;9534;51.140;6.296;2023-02-21T09:52:50;101074.56;;;7.48;100.00
18813;BME280;9534;51.140;6.296;2023-02-21T09:56:55;101066.84;;;7.60;100.00
18813;BME280;9534;51.140;6.296;2023-02-21T10:01:02;101063.09;;;7.61;100.00
18813;BME280;9534;51.140;6.296;2023-02-21T10:05:32;101073.19;;;7.75;100.00
18813;BME280;9534;51.140;6.296;2023-02-21T10:09:45;101074.50;;;7.79;100.00
18813;BME280;9534;51.140;6.296;2023-02-21T10:13:55;101067.09;;;7.73;100.00
18813;BME280;9534;51.140;6.296;2023-02-21T10:18:08;101064.06;;;7.68;100.00
18813;BME280;9534;51.140;6.296;2023-02-21T10:22:22;101067.75;;;7.75;100.00
18813;BME280;9534;51.140;6.296;2023-02-21T10:26:28;101062.56;;;7.80;100.00
18813;BME280;9534;51.140;6.296;2023-02-21T10:30:36;101070.47;;;7.75;100.00
18813;BME280;9534;51.140;6.296;2023-02-21T10:34:44;101075.41;;;7.94;100.00
18813;BME280;9534;51.140;6.296;2023-02-21T10:38:54;101072.09;;;7.84;100.00
18813;BME280;9534;51.140;6.296;2023-02-21T10:43:05;101072.03;;;7.92;100.00
18813;BME280;9534;51.140;6.296;2023-02-21T10:47:17;101069.53;;;8.05;100.00
18813;BME280;9534;51.140;6.296;2023-02-21T10:51:29;101071.59;;;8.03;100.00
18813;BME280;9534;51.140;6.296;2023-02-21T10:55:33;101077.09;;;7.95;100.00
18813;BME280;9534;51.140;6.296;2023-02-21T10:59:39;101066.06;;;8.11;100.00
18813;BME280;9534;51.140;6.296;2023-02-21T11:03:48;101062.69;;;8.09;100.00
18813;BME280;9534;51.140;6.296;2023-02-21T11:07:57;101057.22;;;8.09;100.00
18813;BME280;9534;51.140;6.296;2023-02-21T11:12:04;101048.88;;;7.88;100.00
18813;BME280;9534;51.140;6.296;2023-02-21T11:16:11;101048.59;;;7.83;100.00
18813;BME280;9534;51.140;6.296;2023-02-21T11:20:19;101042.34;;;7.97;100.00
18813;BME280;9534;51.140;6.296;2023-02-21T11:24:24;101036.16;;;8.03;100.00
18813;BME280;9534;51.140;6.296;2023-02-21T11:28:27;101035.78;;;8.06;100.00
18813;BME280;9534;51.140;6.296;2023-02-21T11:32:33;101027.81;;;7.82;100.00
18813;BME280;9534;51.140;6.296;2023-02-21T11:36:39;101029.75;;;7.96;100.00
18813;BME280;9534;51.140;6.296;2023-02-21T11:40:46;101028.19;;;8.16;100.00
18813;BME280;9534;51.140;6.296;2023-02-21T11:45:12;101012.72;;;7.94;100.00
18813;BME280;9534;51.140;6.296;2023-02-21T11:49:24;101005.97;;;8.27;100.00
18813;BME280;9534;51.140;6.296;2023-02-21T11:53:36;101021.50;;;8.04;100.00
18813;BME280;9534;51.140;6.296;2023-02-21T11:57:46;101006.28;;;8.32;100.00
18813;BME280;9534;51.140;6.296;2023-02-21T12:02:03;100992.19;;;8.06;100.00
18813;BME280;9534;51.140;6.296;2023-02-21T12:06:14;100995.84;;;8.50;100.00
18813;BME280;9534;51.140;6.296;2023-02-21T12:10:39;100975.41;;;8.31;100.00
18813;BME280;9534;51.140;6.296;2023-02-21T12:14:56;100966.31;;;8.39;100.00
18813;BME280;9534;51.140;6.296;2023-02-21T12:19:25;100967.31;;;8.52;100.00
18813;BME280;9534;51.140;6.296;2023-02-21T12:23:41;100954.91;;;8.64;100.00
18813;BME280;9534;51.140;6.296;2023-02-21T12:27:53;100950.28;;;8.64;100.00
18813;BME280;9534;51.140;6.296;2023-02-21T12:36:42;100940.88;;;8.67;100.00
18813;BME280;9534;51.140;6.296;2023-02-21T12:40:57;100943.91;;;8.58;100.00
18813;BME280;9534;51.140;6.296;2023-02-21T12:45:18;100933.88;;;8.44;100.00
18813;BME280;9534;51.140;6.296;2023-02-21T12:49:27;100940.31;;;8.14;100.00
18813;BME280;9534;51.140;6.296;2023-02-21T12:53:35;100939.47;;;8.13;100.00
18813;BME280;9534;51.140;6.296;2023-02-21T12:57:48;100940.16;;;8.30;100.00
18813;BME280;9534;51.140;6.296;2023-02-21T13:01:58;100937.13;;;8.25;100.00
18813;BME280;9534;51.140;6.296;2023-02-21T13:06:07;100936.56;;;8.15;100.00
18813;BME280;9534;51.140;6.296;2023-02-21T13:10:15;100936.50;;;8.52;100.00
18813;BME280;9534;51.140;6.296;2023-02-21T13:14:24;100925.47;;;8.60;100.00
18813;BME280;9534;51.140;6.296;2023-02-21T13:18:33;100927.56;;;8.58;100.00
18813;BME280;9534;51.140;6.296;2023-02-21T13:27:41;100908.34;;;8.51;100.00
18813;BME280;9534;51.140;6.296;2023-02-21T13:31:57;100914.56;;;8.60;100.00
18813;BME280;9534;51.140;6.296;2023-02-21T13:36:19;100910.59;;;8.62;100.00
18813;BME280;9534;51.140;6.296;2023-02-21T13:40:25;100898.22;;;8.80;100.00
18813;BME280;9534;51.140;6.296;2023-02-21T13:44:37;100889.06;;;9.09;100.00
18813;BME280;9534;51.140;6.296;2023-02-21T13:48:43;100880.97;;;8.94;100.00
18813;BME280;9534;51.140;6.296;2023-02-21T13:52:52;100869.13;;;9.29;100.00
18813;BME280;9534;51.140;6.296;2023-02-21T13:57:28;100845.75;;;9.48;100.00
18813;BME280;9534;51.140;6.296;2023-02-21T14:01:50;100843.63;;;8.95;100.00
18813;BME280;9534;51.140;6.296;2023-02-21T14:06:31;100854.44;;;8.88;100.00
18813;BME280;9534;51.140;6.296;2023-02-21T14:10:40;100848.13;;;9.30;100.00
18813;BME280;9534;51.140;6.296;2023-02-21T14:14:46;100844.50;;;9.50;100.00
18813;BME280;9534;51.140;6.296;2023-02-21T14:18:55;100839.00;;;9.44;100.00
18813;BME280;9534;51.140;6.296;2023-02-21T14:22:59;100829.66;;;9.86;100.00
18813;BME280;9534;51.140;6.296;2023-02-21T14:27:35;100825.09;;;9.39;100.00
18813;BME280;9534;51.140;6.296;2023-02-21T14:31:50;100819.94;;;8.81;100.00
18813;BME280;9534;51.140;6.296;2023-02-21T14:35:59;100827.28;;;9.22;100.00
18813;BME280;9534;51.140;6.296;2023-02-21T14:40:18;100821.72;;;9.64;100.00
18813;BME280;9534;51.140;6.296;2023-02-21T14:44:29;100807.31;;;9.49;100.00
18813;BME280;9534;51.140;6.296;2023-02-21T14:48:57;100811.66;;;9.71;100.00
18813;BME280;9534;51.140;6.296;2023-02-21T14:58:14;100796.41;;;9.83;100.00
18813;BME280;9534;51.140;6.296;2023-02-21T15:02:29;100799.56;;;9.53;100.00
18813;BME280;9534;51.140;6.296;2023-02-21T15:06:38;100806.88;;;9.18;100.00
18813;BME280;9534;51.140;6.296;2023-02-21T15:10:47;100812.75;;;9.22;100.00
18813;BME280;9534;51.140;6.296;2023-02-21T15:14:51;100811.25;;;9.40;100.00
18813;BME280;9534;51.140;6.296;2023-02-21T15:18:59;100809.16;;;9.42;100.00
18813;BME280;9534;51.140;6.296;2023-02-21T15:23:11;100791.25;;;9.33;100.00
18813;BME280;9534;51.140;6.296;2023-02-21T15:27:15;100801.84;;;9.22;100.00
18813;BME280;9534;51.140;6.296;2023-02-21T15:31:18;100805.56;;;8.93;100.00
18813;BME280;9534;51.140;6.296;2023-02-21T15:35:27;100814.88;;;8.99;100.00
18813;BME280;9534;51.140;6.296;2023-02-21T15:39:33;100812.97;;;8.99;100.00
18813;BME280;9534;51.140;6.296;2023-02-21T15:43:43;100814.81;;;9.13;100.00
18813;BME280;9534;51.140;6.296;2023-02-21T15:47:48;100809.81;;;8.96;100.00
18813;BME280;9534;51.140;6.296;2023-02-21T15:51:54;100811.03;;;8.93;100.00
18813;BME280;9534;51.140;6.296;2023-02-21T15:56:16;100821.81;;;8.80;100.00
18813;BME280;9534;51.140;6.296;2023-02-21T16:00:24;100823.25;;;8.76;100.00
18813;BME280;9534;51.140;6.296;2023-02-21T16:04:34;100822.09;;;8.85;100.00
18813;BME280;9534;51.140;6.296;2023-02-21T16:08:50;100819.72;;;8.61;100.00
18813;BME280;9534;51.140;6.296;2023-02-21T16:12:56;100810.06;;;8.59;100.00
18813;BME280;9534;51.140;6.296;2023-02-21T16:17:08;100803.34;;;8.61;100.00
18813;BME280;9534;51.140;6.296;2023-02-21T16:21:21;100803.34;;;8.61;100.00
18813;BME280;9534;51.140;6.296;2023-02-21T16:25:26;100797.28;;;8.60;100.00
18813;BME280;9534;51.140;6.296;2023-02-21T16:29:34;100804.59;;;8.59;100.00
18813;BME280;9534;51.140;6.296;2023-02-21T16:33:37;100801.16;;;8.51;100.00
18813;BME280;9534;51.140;6.296;2023-02-21T16:37:41;100800.78;;;8.54;100.00
18813;BME280;9534;51.140;6.296;2023-02-21T16:41:45;100796.63;;;8.58;100.00
18813;BME280;9534;51.140;6.296;2023-02-21T16:45:50;100795.06;;;8.49;100.00
18813;BME280;9534;51.140;6.296;2023-02-21T16:49:54;100789.78;;;8.47;100.00
18813;BME280;9534;51.140;6.296;2023-02-21T16:53:57;100796.97;;;8.34;100.00
18813;BME280;9534;51.140;6.296;2023-02-21T16:58:05;100801.38;;;8.35;100.00
18813;BME280;9534;51.140;6.296;2023-02-21T17:02:12;100803.63;;;8.31;100.00
18813;BME280;9534;51.140;6.296;2023-02-21T17:06:18;100808.78;;;8.26;100.00
18813;BME280;9534;51.140;6.296;2023-02-21T17:10:23;100809.47;;;8.28;100.00
18813;BME280;9534;51.140;6.296;2023-02-21T17:14:27;100813.72;;;8.31;100.00
18813;BME280;9534;51.140;6.296;2023-02-21T17:18:30;100809.31;;;8.30;100.00
18813;BME280;9534;51.140;6.296;2023-02-21T17:22:34;100816.81;;;8.28;100.00
18813;BME280;9534;51.140;6.296;2023-02-21T17:26:38;100824.03;;;8.21;100.00
18813;BME280;9534;51.140;6.296;2023-02-21T17:30:43;100817.94;;;8.19;100.00
18813;BME280;9534;51.140;6.296;2023-02-21T17:34:46;100818.69;;;8.13;100.00
18813;BME280;9534;51.140;6.296;2023-02-21T17:38:49;100816.72;;;8.07;100.00
18813;BME280;9534;51.140;6.296;2023-02-21T17:42:53;100811.75;;;7.96;100.00
18813;BME280;9534;51.140;6.296;2023-02-21T17:46:59;100806.97;;;7.83;100.00
18813;BME280;9534;51.140;6.296;2023-02-21T17:51:03;100808.97;;;7.75;100.00
18813;BME280;9534;51.140;6.296;2023-02-21T17:55:07;100804.56;;;7.74;100.00
18813;BME280;9534;51.140;6.296;2023-02-21T17:59:12;100806.22;;;7.60;100.00
18813;BME280;9534;51.140;6.296;2023-02-21T18:03:16;100803.41;;;7.68;100.00
18813;BME280;9534;51.140;6.296;2023-02-21T18:07:20;100800.59;;;7.62;100.00
18813;BME280;9534;51.140;6.296;2023-02-21T18:11:24;100804.53;;;7.59;100.00
18813;BME280;9534;51.140;6.296;2023-02-21T18:15:27;100800.97;;;7.59;100.00
18813;BME280;9534;51.140;6.296;2023-02-21T18:19:32;100797.88;;;7.62;100.00
18813;BME280;9534;51.140;6.296;2023-02-21T18:23:35;100799.56;;;7.63;100.00
18813;BME280;9534;51.140;6.296;2023-02-21T18:27:39;100800.13;;;7.58;100.00
18813;BME280;9534;51.140;6.296;2023-02-21T18:31:42;100803.69;;;7.59;100.00
18813;BME280;9534;51.140;6.296;2023-02-21T18:35:47;100798.44;;;7.57;100.00
18813;BME280;9534;51.140;6.296;2023-02-21T18:39:50;100797.09;;;7.53;100.00
18813;BME280;9534;51.140;6.296;2023-02-21T18:43:54;100807.81;;;7.55;100.00
18813;BME280;9534;51.140;6.296;2023-02-21T18:47:59;100808.19;;;7.52;100.00
18813;BME280;9534;51.140;6.296;2023-02-21T18:52:04;100811.94;;;7.51;100.00
18813;BME280;9534;51.140;6.296;2023-02-21T18:56:09;100802.25;;;7.48;100.00
18813;BME280;9534;51.140;6.296;2023-02-21T19:00:16;100803.13;;;7.49;100.00
18813;BME280;9534;51.140;6.296;2023-02-21T19:04:20;100796.81;;;7.48;100.00
18813;BME280;9534;51.140;6.296;2023-02-21T19:08:25;100802.75;;;7.52;100.00
18813;BME280;9534;51.140;6.296;2023-02-21T19:12:29;100793.19;;;7.56;100.00
18813;BME280;9534;51.140;6.296;2023-02-21T19:16:32;100786.78;;;7.63;100.00
18813;BME280;9534;51.140;6.296;2023-02-21T19:20:35;100793.56;;;7.53;100.00
18813;BME280;9534;51.140;6.296;2023-02-21T19:24:42;100791.84;;;7.52;100.00
18813;BME280;9534;51.140;6.296;2023-02-21T19:28:45;100791.50;;;7.55;100.00
18813;BME280;9534;51.140;6.296;2023-02-21T19:32:49;100786.03;;;7.55;100.00
18813;BME280;9534;51.140;6.296;2023-02-21T19:36:52;100791.28;;;7.42;100.00
18813;BME280;9534;51.140;6.296;2023-02-21T19:40:57;100787.63;;;7.35;100.00
18813;BME280;9534;51.140;6.296;2023-02-21T19:45:01;100785.25;;;7.32;100.00
18813;BME280;9534;51.140;6.296;2023-02-21T19:49:05;100780.28;;;7.35;100.00
18813;BME280;9534;51.140;6.296;2023-02-21T19:53:18;100779.06;;;7.38;100.00
18813;BME280;9534;51.140;6.296;2023-02-21T19:57:23;100774.75;;;7.29;100.00
18813;BME280;9534;51.140;6.296;2023-02-21T20:01:26;100778.88;;;7.25;100.00
18813;BME280;9534;51.140;6.296;2023-02-21T20:05:31;100775.47;;;7.23;100.00
18813;BME280;9534;51.140;6.296;2023-02-21T20:09:34;100774.75;;;7.29;100.00
18813;BME280;9534;51.140;6.296;2023-02-21T20:13:38;100781.41;;;7.27;100.00
18813;BME280;9534;51.140;6.296;2023-02-21T20:17:43;100780.28;;;7.21;100.00
18813;BME280;9534;51.140;6.296;2023-02-21T20:21:47;100779.59;;;7.19;100.00
18813;BME280;9534;51.140;6.296;2023-02-21T20:25:52;100774.53;;;7.16;100.00
18813;BME280;9534;51.140;6.296;2023-02-21T20:29:57;100765.34;;;7.17;100.00
18813;BME280;9534;51.140;6.296;2023-02-21T20:34:01;100759.31;;;7.07;100.00
18813;BME280;9534;51.140;6.296;2023-02-21T20:38:05;100767.19;;;7.02;100.00
18813;BME280;9534;51.140;6.296;2023-02-21T20:42:10;100772.44;;;6.89;100.00
18813;BME280;9534;51.140;6.296;2023-02-21T20:46:20;100773.00;;;6.99;100.00
18813;BME280;9534;51.140;6.296;2023-02-21T20:50:24;100762.47;;;6.96;100.00
18813;BME280;9534;51.140;6.296;2023-02-21T20:54:27;100753.28;;;6.97;100.00
18813;BME280;9534;51.140;6.296;2023-02-21T20:58:30;100759.09;;;6.94;100.00
18813;BME280;9534;51.140;6.296;2023-02-21T21:02:35;100751.97;;;6.93;100.00
18813;BME280;9534;51.140;6.296;2023-02-21T21:06:39;100755.72;;;6.92;100.00
18813;BME280;9534;51.140;6.296;2023-02-21T21:10:43;100744.06;;;6.84;100.00
18813;BME280;9534;51.140;6.296;2023-02-21T21:14:50;100741.84;;;6.87;100.00
18813;BME280;9534;51.140;6.296;2023-02-21T21:18:56;100746.78;;;6.84;100.00
18813;BME280;9534;51.140;6.296;2023-02-21T21:22:59;100750.75;;;6.81;100.00
18813;BME280;9534;51.140;6.296;2023-02-21T21:27:03;100733.41;;;6.82;100.00
18813;BME280;9534;51.140;6.296;2023-02-21T21:31:11;100735.75;;;6.85;100.00
18813;BME280;9534;51.140;6.296;2023-02-21T21:35:17;100732.38;;;6.83;100.00
18813;BME280;9534;51.140;6.296;2023-02-21T21:39:21;100726.19;;;6.89;100.00
18813;BME280;9534;51.140;6.296;2023-02-21T21:43:25;100730.56;;;6.90;100.00
18813;BME280;9534;51.140;6.296;2023-02-21T21:47:29;100727.47;;;6.93;100.00
18813;BME280;9534;51.140;6.296;2023-02-21T21:51:35;100721.00;;;6.94;100.00
18813;BME280;9534;51.140;6.296;2023-02-21T21:55:39;100719.91;;;7.03;100.00
18813;BME280;9534;51.140;6.296;2023-02-21T21:59:43;100705.63;;;7.01;100.00
18813;BME280;9534;51.140;6.296;2023-02-21T22:03:46;100705.63;;;7.01;100.00
18813;BME280;9534;51.140;6.296;2023-02-21T22:07:51;100697.97;;;7.05;100.00
18813;BME280;9534;51.140;6.296;2023-02-21T22:11:54;100691.13;;;7.09;100.00
18813;BME280;9534;51.140;6.296;2023-02-21T22:15:58;100676.75;;;7.00;100.00
18813;BME280;9534;51.140;6.296;2023-02-21T22:20:03;100670.19;;;7.09;100.00